createdAt,value
2018-06-05T00:00:33.545Z,1.20
2018-06-05T00:03:03.557Z,1.40
2018-06-05T00:05:33.368Z,0.73
2018-06-05T00:08:02.203Z,0.90
2018-06-05T00:10:31.386Z,0.87
2018-06-05T00:13:00.782Z,0.97
2018-06-05T00:15:29.960Z,0.80
2018-06-05T00:17:59.603Z,1.03
2018-06-05T00:20:28.701Z,1.10
2018-06-05T00:22:58.186Z,1.10
2018-06-05T00:25:27.808Z,1.00
2018-06-05T00:27:57.316Z,0.80
2018-06-05T00:30:28.564Z,0.57
2018-06-05T00:32:58.903Z,0.87
2018-06-05T00:35:27.964Z,0.80
2018-06-05T00:37:57.396Z,0.57
2018-06-05T00:40:26.826Z,0.90
2018-06-05T00:42:55.808Z,0.60
2018-06-05T00:45:24.900Z,0.70
2018-06-05T00:47:54.534Z,0.57
2018-06-05T00:50:24.193Z,0.70
2018-06-05T00:52:54.322Z,0.80
2018-06-05T00:55:23.657Z,0.63
2018-06-05T00:57:52.964Z,0.73
2018-06-05T01:00:22.772Z,0.53
2018-06-05T01:02:52.331Z,0.60
2018-06-05T01:05:21.763Z,0.90
2018-06-05T01:07:51.959Z,0.70
2018-06-05T01:10:21.834Z,0.70
2018-06-05T01:12:51.244Z,0.60
2018-06-05T01:15:20.295Z,1.50
2018-06-05T01:17:50.008Z,0.60
2018-06-05T01:20:19.277Z,0.67
2018-06-05T01:22:48.353Z,0.60
2018-06-05T01:25:19.368Z,0.60
2018-06-05T01:27:48.375Z,0.67
2018-06-05T01:30:18.229Z,0.50
2018-06-05T01:32:47.848Z,0.70
2018-06-05T01:35:17.542Z,0.80
2018-06-05T01:37:46.276Z,0.93
2018-06-05T01:40:15.339Z,0.80
2018-06-05T01:42:44.688Z,0.73
2018-06-05T01:45:14.321Z,0.87
2018-06-05T01:47:42.936Z,0.50
2018-06-05T01:50:12.032Z,0.70
2018-06-05T01:52:40.985Z,0.60
2018-06-05T01:55:10.762Z,0.60
2018-06-05T01:57:39.548Z,0.60
2018-06-05T02:00:09.340Z,0.40
2018-06-05T02:02:38.198Z,0.63
2018-06-05T02:05:08.252Z,0.80
2018-06-05T02:07:38.053Z,0.70
2018-06-05T02:10:07.912Z,0.60
2018-06-05T02:12:37.577Z,0.43
2018-06-05T02:15:07.457Z,0.67
2018-06-05T02:17:36.844Z,0.50
2018-06-05T02:20:06.505Z,0.50
2018-06-05T02:22:36.485Z,0.50
2018-06-05T02:25:05.701Z,0.50
2018-06-05T02:27:34.528Z,0.60
2018-06-05T02:30:04.099Z,0.70
2018-06-05T02:32:33.847Z,0.83
2018-06-05T02:35:02.696Z,0.60
2018-06-05T02:37:31.938Z,0.60
2018-06-05T02:40:01.708Z,0.77
2018-06-05T02:42:31.377Z,0.90
2018-06-05T02:45:00.429Z,0.63
2018-06-05T02:47:29.831Z,0.70
2018-06-05T02:49:59.580Z,0.90
2018-06-05T02:52:30.223Z,0.50
2018-06-05T02:54:59.592Z,0.40
2018-06-05T02:57:28.909Z,0.60
2018-06-05T02:59:58.807Z,0.80
2018-06-05T03:02:28.238Z,0.60
2018-06-05T03:04:58.263Z,0.70
2018-06-05T03:07:27.457Z,0.60
2018-06-05T03:09:57.036Z,0.70
2018-06-05T03:12:26.076Z,0.77
2018-06-05T03:14:55.268Z,0.50
2018-06-05T03:17:24.480Z,0.60
2018-06-05T03:19:53.805Z,0.77
2018-06-05T03:22:23.079Z,0.80
2018-06-05T03:24:52.207Z,0.70
2018-06-05T03:27:21.464Z,0.60
2018-06-05T03:29:50.567Z,0.80
2018-06-05T03:32:19.593Z,0.70
2018-06-05T03:34:49.117Z,0.53
2018-06-05T03:37:19.070Z,0.63
2018-06-05T03:39:48.650Z,0.70
2018-06-05T03:42:18.724Z,0.80
2018-06-05T03:44:47.926Z,0.63
2018-06-05T03:47:17.024Z,0.77
2018-06-05T03:49:47.860Z,0.90
2018-06-05T03:52:17.800Z,0.93
2018-06-05T03:54:47.289Z,0.97
2018-06-05T03:57:16.618Z,0.73
2018-06-05T03:59:46.728Z,0.90
2018-06-05T04:02:15.736Z,1.00
2018-06-05T04:04:45.883Z,0.80
2018-06-05T04:07:15.832Z,0.80
2018-06-05T04:09:45.945Z,0.60
2018-06-05T04:12:16.571Z,0.60
2018-06-05T04:14:46.336Z,0.67
2018-06-05T04:17:15.612Z,0.83
2018-06-05T04:19:44.805Z,0.70
2018-06-05T04:22:14.081Z,0.80
2018-06-05T04:24:43.726Z,0.80
2018-06-05T04:27:13.776Z,0.70
2018-06-05T04:29:43.518Z,1.30
2018-06-05T04:32:16.729Z,0.50
2018-06-05T04:34:46.135Z,1.00
2018-06-05T04:37:15.768Z,0.80
2018-06-05T04:39:45.333Z,0.70
2018-06-05T04:42:14.157Z,0.60
2018-06-05T04:44:43.971Z,0.50
2018-06-05T04:47:13.192Z,0.77
2018-06-05T04:49:42.320Z,1.00
2018-06-05T04:52:10.939Z,0.60
2018-06-05T04:54:40.652Z,0.97
2018-06-05T04:57:10.336Z,1.00
2018-06-05T04:59:39.948Z,0.60
2018-06-05T05:02:09.152Z,0.57
2018-06-05T05:04:38.681Z,0.60
2018-06-05T05:07:08.550Z,0.60
2018-06-05T05:09:37.811Z,1.00
2018-06-05T05:12:06.964Z,1.20
2018-06-05T05:14:36.286Z,0.83
2018-06-05T05:17:06.259Z,0.70
2018-06-05T05:19:35.218Z,0.83
2018-06-05T05:22:04.743Z,0.83
2018-06-05T05:24:34.170Z,0.77
2018-06-05T05:27:04.745Z,0.97
2018-06-05T05:29:34.027Z,0.80
2018-06-05T05:32:03.582Z,0.70
2018-06-05T05:34:32.968Z,0.90
2018-06-05T05:37:03.938Z,1.00
2018-06-05T05:39:33.800Z,0.97
2018-06-05T05:42:02.932Z,0.93
2018-06-05T05:44:32.156Z,0.90
2018-06-05T05:47:01.359Z,1.00
2018-06-05T05:49:30.563Z,1.00
2018-06-05T05:52:00.237Z,1.13
2018-06-05T05:54:29.512Z,0.77
2018-06-05T05:56:58.701Z,0.80
2018-06-05T05:59:28.617Z,0.90
2018-06-05T06:01:58.255Z,0.70
2018-06-05T06:04:26.903Z,0.70
2018-06-05T06:06:56.012Z,0.60
2018-06-05T06:09:24.975Z,0.80
2018-06-05T06:11:53.968Z,0.80
2018-06-05T06:14:23.116Z,0.60
2018-06-05T06:16:52.378Z,0.60
2018-06-05T06:19:21.497Z,0.67
2018-06-05T06:21:50.465Z,0.70
2018-06-05T06:24:19.768Z,1.00
2018-06-05T06:26:48.838Z,0.87
2018-06-05T06:29:17.766Z,0.80
2018-06-05T06:31:47.967Z,0.80
2018-06-05T06:34:17.151Z,0.63
2018-06-05T06:36:47.512Z,0.83
2018-06-05T06:39:17.184Z,0.90
2018-06-05T06:41:45.994Z,1.57
2018-06-05T06:44:16.319Z,1.10
2018-06-05T06:46:45.409Z,1.07
2018-06-05T06:49:14.214Z,1.30
2018-06-05T06:51:44.003Z,0.80
2018-06-05T06:54:13.761Z,0.60
2018-06-05T06:56:42.945Z,0.60
2018-06-05T06:59:11.957Z,0.93
2018-06-05T07:01:44.484Z,0.80
2018-06-05T07:04:14.108Z,0.70
2018-06-05T07:06:42.789Z,1.23
2018-06-05T07:09:12.812Z,0.70
2018-06-05T07:11:42.380Z,1.00
2018-06-05T07:14:11.275Z,1.00
2018-06-05T07:16:40.856Z,1.03
2018-06-05T07:19:09.847Z,0.67
2018-06-05T07:21:38.880Z,0.77
2018-06-05T07:24:08.171Z,0.70
2018-06-05T07:26:37.276Z,0.90
2018-06-05T07:29:06.513Z,0.60
2018-06-05T07:31:37.711Z,0.70
2018-06-05T07:34:06.840Z,0.77
2018-06-05T07:36:35.980Z,0.73
2018-06-05T07:39:06.877Z,0.50
2018-06-05T07:41:35.683Z,0.90
2018-06-05T07:44:04.823Z,0.70
2018-06-05T07:46:34.672Z,0.70
2018-06-05T07:49:03.962Z,0.60
2018-06-05T07:51:33.093Z,0.80
2018-06-05T07:54:01.976Z,0.60
2018-06-05T07:56:31.819Z,0.60
2018-06-05T07:59:01.136Z,0.80
2018-06-05T08:01:30.376Z,1.10
2018-06-05T08:04:00.084Z,0.73
2018-06-05T08:06:29.111Z,0.53
2018-06-05T08:08:59.228Z,0.80
2018-06-05T08:11:29.001Z,0.70
2018-06-05T08:13:58.656Z,0.60
2018-06-05T08:16:27.799Z,0.60
2018-06-05T08:18:56.885Z,0.80
2018-06-05T08:21:25.991Z,0.60
2018-06-05T08:23:55.116Z,1.00
2018-06-05T08:26:24.305Z,0.60
2018-06-05T08:28:53.319Z,0.93
2018-06-05T08:31:22.272Z,0.80
2018-06-05T08:33:51.146Z,0.80
2018-06-05T08:36:20.253Z,0.80
2018-06-05T08:38:49.208Z,1.10
2018-06-05T08:41:18.819Z,0.87
2018-06-05T08:43:47.688Z,0.63
2018-06-05T08:46:20.116Z,0.60
2018-06-05T08:48:53.064Z,0.90
2018-06-05T08:51:23.901Z,0.60
2018-06-05T08:53:53.624Z,1.00
2018-06-05T08:56:23.316Z,0.73
2018-06-05T08:58:52.859Z,0.40
2018-06-05T09:01:22.005Z,0.83
2018-06-05T09:03:51.532Z,0.67
2018-06-05T09:06:20.777Z,0.87
2018-06-05T09:08:50.081Z,0.73
2018-06-05T09:11:19.264Z,0.60
2018-06-05T09:13:48.370Z,0.80
2018-06-05T09:16:17.060Z,0.70
2018-06-05T09:18:46.204Z,0.70
2018-06-05T09:21:15.177Z,0.70
2018-06-05T09:23:44.389Z,0.67
2018-06-05T09:26:13.973Z,1.20
2018-06-05T09:28:43.275Z,0.80
2018-06-05T09:31:13.004Z,1.00
2018-06-05T09:33:41.900Z,0.57
2018-06-05T09:36:11.115Z,0.70
2018-06-05T09:38:40.240Z,0.80
2018-06-05T09:41:09.122Z,0.97
2018-06-05T09:43:38.291Z,0.80
2018-06-05T09:46:08.024Z,0.80
2018-06-05T09:48:36.617Z,0.90
2018-06-05T09:51:05.558Z,1.03
2018-06-05T09:53:34.507Z,0.80
2018-06-05T09:56:03.816Z,0.77
2018-06-05T09:58:32.845Z,0.70
2018-06-05T10:01:01.805Z,0.77
2018-06-05T10:03:30.641Z,0.50
2018-06-05T10:05:59.946Z,0.80
2018-06-05T10:08:28.513Z,1.43
2018-06-05T10:10:57.187Z,0.60
2018-06-05T10:13:25.951Z,0.53
2018-06-05T10:15:55.271Z,0.70
2018-06-05T10:18:24.220Z,0.97
2018-06-05T10:20:53.328Z,0.60
2018-06-05T10:23:23.090Z,1.27
2018-06-05T10:25:51.658Z,0.90
2018-06-05T10:28:20.658Z,1.00
2018-06-05T10:30:49.740Z,0.90
2018-06-05T10:33:18.653Z,0.87
2018-06-05T10:35:47.658Z,0.50
2018-06-05T10:38:16.907Z,0.50
2018-06-05T10:40:46.036Z,0.70
2018-06-05T10:43:15.111Z,0.50
2018-06-05T10:45:44.221Z,0.63
2018-06-05T10:48:13.668Z,0.60
2018-06-05T10:50:42.717Z,0.60
2018-06-05T10:53:12.255Z,0.90
2018-06-05T10:55:41.545Z,0.73
2018-06-05T10:58:11.609Z,0.80
2018-06-05T11:00:40.335Z,0.93
2018-06-05T11:03:10.583Z,0.90
2018-06-05T11:05:39.680Z,0.50
2018-06-05T11:08:08.617Z,0.80
2018-06-05T11:10:37.564Z,0.60
2018-06-05T11:13:06.944Z,0.60
2018-06-05T11:15:36.333Z,0.87
2018-06-05T11:18:05.273Z,0.83
2018-06-05T11:20:34.712Z,0.70
2018-06-05T11:23:04.006Z,0.80
2018-06-05T11:25:33.184Z,0.80
2018-06-05T11:28:02.952Z,0.70
2018-06-05T11:30:32.112Z,0.50
2018-06-05T11:33:01.081Z,0.70
2018-06-05T11:35:30.613Z,0.70
2018-06-05T11:37:59.556Z,0.57
2018-06-05T11:40:28.755Z,0.67
2018-06-05T11:42:57.398Z,0.70
2018-06-05T11:45:25.831Z,0.80
2018-06-05T11:47:55.031Z,0.70
2018-06-05T11:50:23.932Z,1.00
2018-06-05T11:52:54.685Z,0.70
2018-06-05T11:55:24.324Z,0.90
2018-06-05T11:57:53.514Z,0.80
2018-06-05T12:00:22.003Z,0.70
2018-06-05T12:02:51.855Z,0.50
2018-06-05T12:05:20.501Z,0.70
2018-06-05T12:07:50.048Z,0.60
2018-06-05T12:10:19.169Z,0.70
2018-06-05T12:12:48.080Z,0.70
2018-06-05T12:15:18.538Z,0.70
2018-06-05T12:17:47.692Z,0.50
2018-06-05T12:20:17.389Z,0.60
2018-06-05T12:22:46.485Z,0.80
2018-06-05T12:25:15.338Z,0.60
2018-06-05T12:27:44.608Z,0.80
2018-06-05T12:30:14.041Z,0.50
2018-06-05T12:32:43.251Z,0.70
2018-06-05T12:35:12.379Z,0.63
2018-06-05T12:37:42.235Z,0.80
2018-06-05T12:40:11.243Z,0.67
2018-06-05T12:42:40.412Z,0.60
2018-06-05T12:45:09.059Z,0.70
2018-06-05T12:47:38.013Z,0.80
2018-06-05T12:50:06.944Z,0.90
2018-06-05T12:52:36.080Z,0.70
2018-06-05T12:55:05.128Z,0.70
2018-06-05T12:57:34.678Z,0.77
2018-06-05T13:00:03.758Z,0.60
2018-06-05T13:02:32.974Z,0.60
2018-06-05T13:05:02.931Z,0.70
2018-06-05T13:07:32.119Z,0.70
2018-06-05T13:10:01.748Z,0.43
2018-06-05T13:12:30.460Z,0.70
2018-06-05T13:14:59.668Z,0.70
2018-06-05T13:17:28.674Z,0.50
2018-06-05T13:19:57.728Z,0.57
2018-06-05T13:22:26.568Z,0.70
2018-06-05T13:24:55.980Z,0.60
2018-06-05T13:27:25.916Z,0.80
2018-06-05T13:29:55.205Z,0.67
2018-06-05T13:32:24.675Z,0.50
2018-06-05T13:34:53.772Z,0.60
2018-06-05T13:37:22.727Z,2.77
2018-06-05T13:39:52.449Z,3.70
2018-06-05T13:42:21.520Z,0.57
2018-06-05T13:44:50.415Z,0.70
2018-06-05T13:47:19.351Z,0.80
2018-06-05T13:49:48.157Z,0.87
2018-06-05T13:52:16.980Z,0.63
2018-06-05T13:54:45.656Z,0.63
2018-06-05T13:57:14.584Z,0.80
2018-06-05T13:59:43.396Z,0.77
2018-06-05T14:02:12.760Z,0.80
2018-06-05T14:04:43.076Z,0.73
2018-06-05T14:07:12.171Z,0.80
2018-06-05T14:09:40.961Z,1.10
2018-06-05T14:12:09.968Z,0.60
2018-06-05T14:14:38.752Z,0.90
2018-06-05T14:17:07.676Z,0.80
2018-06-05T14:19:36.313Z,0.50
2018-06-05T14:22:05.210Z,0.67
2018-06-05T14:24:34.964Z,0.53
2018-06-05T14:27:03.860Z,0.53
2018-06-05T14:29:32.803Z,0.70
2018-06-05T14:32:02.548Z,0.97
2018-06-05T14:34:31.179Z,1.13
2018-06-05T14:37:00.577Z,0.60
2018-06-05T14:39:30.440Z,0.50
2018-06-05T14:42:00.056Z,0.70
2018-06-05T14:44:28.971Z,0.90
2018-06-05T14:46:58.096Z,0.87
2018-06-05T14:49:27.295Z,0.90
2018-06-05T14:51:57.124Z,0.60
2018-06-05T14:54:25.714Z,0.80
2018-06-05T14:56:55.540Z,0.60
2018-06-05T14:59:24.724Z,1.10
2018-06-05T15:01:53.864Z,0.63
2018-06-05T15:04:22.616Z,0.60
2018-06-05T15:06:51.578Z,0.60
2018-06-05T15:09:20.512Z,0.80
2018-06-05T15:11:50.908Z,1.00
2018-06-05T15:14:19.960Z,0.73
2018-06-05T15:16:49.036Z,0.50
2018-06-05T15:19:19.563Z,0.60
2018-06-05T15:21:48.636Z,0.90
2018-06-05T15:24:17.652Z,0.80
2018-06-05T15:26:46.720Z,0.90
2018-06-05T15:29:16.123Z,1.00
2018-06-05T15:31:45.771Z,0.97
2018-06-05T15:34:15.157Z,1.10
2018-06-05T15:36:44.412Z,0.80
2018-06-05T15:39:13.651Z,1.00
2018-06-05T15:41:43.009Z,0.80
2018-06-05T15:44:11.872Z,0.73
2018-06-05T15:46:40.888Z,0.90
2018-06-05T15:49:09.748Z,1.07
2018-06-05T15:51:39.146Z,0.80
2018-06-05T15:54:09.015Z,0.93
2018-06-05T15:56:38.348Z,0.70
2018-06-05T15:59:07.784Z,1.33
2018-06-05T16:01:37.181Z,0.80
2018-06-05T16:04:06.204Z,0.60
2018-06-05T16:06:35.579Z,0.70
2018-06-05T16:09:07.467Z,0.70
2018-06-05T16:11:36.852Z,0.70
2018-06-05T16:14:06.167Z,0.60
2018-06-05T16:16:35.410Z,0.60
2018-06-05T16:19:04.164Z,0.70
2018-06-05T16:21:32.881Z,0.90
2018-06-05T16:24:03.221Z,0.73
2018-06-05T16:26:32.502Z,1.00
2018-06-05T16:29:01.676Z,0.57
2018-06-05T16:31:30.875Z,0.63
2018-06-05T16:33:59.839Z,0.60
2018-06-05T16:36:29.031Z,0.57
2018-06-05T16:38:58.386Z,0.70
2018-06-05T16:41:27.444Z,0.43
2018-06-05T16:43:56.540Z,0.80
2018-06-05T16:46:25.608Z,0.70
2018-06-05T16:48:54.630Z,0.60
2018-06-05T16:51:23.880Z,0.83
2018-06-05T16:53:52.791Z,0.77
2018-06-05T16:56:21.873Z,0.60
2018-06-05T16:58:50.781Z,0.70
2018-06-05T17:01:20.468Z,0.70
2018-06-05T17:03:49.368Z,0.77
2018-06-05T17:06:18.612Z,0.80
2018-06-05T17:08:48.487Z,0.70
2018-06-05T17:11:17.424Z,0.60
2018-06-05T17:13:46.564Z,0.90
2018-06-05T17:16:15.249Z,0.90
2018-06-05T17:18:43.852Z,0.90
2018-06-05T17:21:12.893Z,0.60
2018-06-05T17:23:41.482Z,0.50
2018-06-05T17:26:11.035Z,0.60
2018-06-05T17:28:39.900Z,0.60
2018-06-05T17:31:08.741Z,0.70
2018-06-05T17:33:37.504Z,0.80
2018-06-05T17:36:06.752Z,0.70
2018-06-05T17:38:36.572Z,0.60
2018-06-05T17:41:05.690Z,0.60
2018-06-05T17:43:34.727Z,0.67
2018-06-05T17:46:04.728Z,0.70
2018-06-05T17:48:34.815Z,1.00
2018-06-05T17:51:05.767Z,0.80
2018-06-05T17:53:34.749Z,0.73
2018-06-05T17:56:07.804Z,0.90
2018-06-05T17:58:47.788Z,0.67
2018-06-05T18:01:16.441Z,0.70
2018-06-05T18:03:45.555Z,0.57
2018-06-05T18:06:14.700Z,0.50
2018-06-05T18:08:43.972Z,0.50
2018-06-05T18:11:13.201Z,0.80
2018-06-05T18:13:42.385Z,0.57
2018-06-05T18:16:11.688Z,0.70
2018-06-05T18:18:40.956Z,0.60
2018-06-05T18:21:09.817Z,0.60
2018-06-05T18:23:38.794Z,0.50
2018-06-05T18:26:08.191Z,0.50
2018-06-05T18:28:37.258Z,0.60
2018-06-05T18:31:05.881Z,0.80
2018-06-05T18:33:35.107Z,0.77
2018-06-05T18:36:04.088Z,0.87
2018-06-05T18:38:33.252Z,0.80
2018-06-05T18:41:02.057Z,0.60
2018-06-05T18:43:31.856Z,0.50
2018-06-05T18:46:01.461Z,0.60
2018-06-05T18:48:30.247Z,0.80
2018-06-05T18:50:59.212Z,0.80
2018-06-05T18:53:33.460Z,0.80
2018-06-05T18:56:03.154Z,0.60
2018-06-05T18:58:32.836Z,1.00
2018-06-05T19:01:02.775Z,0.70
2018-06-05T19:03:31.874Z,0.80
2018-06-05T19:06:01.253Z,0.67
2018-06-05T19:08:30.292Z,1.23
2018-06-05T19:10:59.551Z,0.80
2018-06-05T19:13:28.552Z,0.70
2018-06-05T19:15:57.496Z,0.47
2018-06-05T19:18:27.451Z,0.60
2018-06-05T19:20:56.533Z,1.00
2018-06-05T19:23:25.866Z,0.80
2018-06-05T19:25:55.033Z,0.83
2018-06-05T19:28:24.258Z,0.80
2018-06-05T19:30:54.048Z,0.50
2018-06-05T19:33:23.351Z,0.50
2018-06-05T19:35:53.104Z,0.63
2018-06-05T19:38:23.370Z,0.60
2018-06-05T19:40:52.556Z,0.73
2018-06-05T19:43:22.440Z,0.97
2018-06-05T19:45:51.613Z,0.73
2018-06-05T19:48:20.349Z,0.70
2018-06-05T19:50:49.484Z,0.70
2018-06-05T19:53:18.167Z,0.57
2018-06-05T19:55:47.903Z,0.70
2018-06-05T19:58:18.328Z,0.70
2018-06-05T20:00:47.365Z,0.60
2018-06-05T20:03:16.314Z,0.60
2018-06-05T20:05:50.056Z,0.60
2018-06-05T20:08:19.115Z,0.80
2018-06-05T20:10:57.784Z,0.67
2018-06-05T20:13:41.144Z,0.60
2018-06-05T20:16:21.876Z,0.60
2018-06-05T20:18:58.446Z,0.80
2018-06-05T20:21:33.256Z,0.97
2018-06-05T20:29:37.127Z,0.80
2018-06-05T20:32:11.534Z,0.70
2018-06-05T20:34:40.829Z,0.80
2018-06-05T20:39:52.056Z,0.80
2018-06-05T20:42:21.469Z,0.60
2018-06-05T20:44:50.773Z,0.70
2018-06-05T20:49:43.441Z,1.00
2018-06-05T20:52:12.457Z,0.97
2018-06-05T20:54:41.855Z,0.80
2018-06-05T21:00:08.217Z,0.77
2018-06-05T21:02:44.187Z,0.90
2018-06-05T21:07:50.261Z,0.90
2018-06-05T21:10:19.936Z,0.93
2018-06-05T21:13:09.635Z,1.00
2018-06-05T21:19:22.585Z,0.67
2018-06-05T21:21:52.219Z,0.97
2018-06-05T21:24:21.148Z,0.70
2018-06-05T21:26:50.427Z,1.23
2018-06-05T21:29:25.158Z,0.83
2018-06-05T21:31:56.949Z,1.20
2018-06-05T21:34:34.254Z,0.97
2018-06-05T21:37:10.772Z,1.20
2018-06-05T21:42:24.939Z,1.23
2018-06-05T21:44:54.859Z,1.40
2018-06-05T21:47:24.209Z,1.03
2018-06-05T21:49:54.138Z,1.77
2018-06-05T21:52:29.408Z,1.50
2018-06-05T22:00:29.293Z,1.33
2018-06-05T22:02:58.683Z,1.33
2018-06-05T22:05:32.042Z,1.50
2018-06-05T22:08:02.000Z,2.60
2018-06-05T22:10:31.152Z,4.00
2018-06-05T22:13:11.917Z,2.53
2018-06-05T22:18:30.523Z,1.70
2018-06-05T22:20:59.763Z,1.50
2018-06-05T22:23:29.578Z,1.63
2018-06-05T22:26:05.024Z,1.73
2018-06-05T22:31:28.794Z,1.80
2018-06-05T22:34:17.821Z,1.80
2018-06-05T22:36:50.841Z,1.40
2018-06-05T22:42:19.772Z,1.50
2018-06-05T22:44:55.952Z,1.60
2018-06-05T22:47:25.075Z,2.10
2018-06-05T22:49:53.972Z,1.70
2018-06-05T22:52:23.795Z,1.90
2018-06-05T22:54:53.664Z,2.00
2018-06-05T22:57:23.708Z,2.20
2018-06-05T22:59:53.276Z,2.13
2018-06-05T23:02:22.632Z,2.40
2018-06-05T23:04:52.912Z,3.00
2018-06-05T23:07:28.056Z,2.57
2018-06-05T23:09:57.772Z,3.33
2018-06-05T23:12:27.790Z,3.30
2018-06-05T23:14:57.917Z,3.30
2018-06-05T23:17:28.119Z,2.83
2018-06-05T23:19:57.396Z,2.80
2018-06-05T23:22:26.593Z,2.80
2018-06-05T23:24:55.796Z,3.30
2018-06-05T23:27:25.104Z,3.20
2018-06-05T23:29:54.456Z,2.63
2018-06-05T23:32:23.174Z,2.40
2018-06-05T23:34:52.239Z,3.47
2018-06-05T23:37:21.048Z,2.57
2018-06-05T23:39:54.700Z,2.33
2018-06-05T23:42:25.373Z,2.33
2018-06-05T23:44:55.352Z,2.17
2018-06-05T23:47:24.376Z,2.00
2018-06-05T23:49:54.066Z,1.70
2018-06-05T23:52:24.356Z,1.50
2018-06-05T23:54:53.696Z,1.30
2018-06-05T23:57:22.796Z,1.63
2018-06-05T23:59:52.327Z,1.53
